sensor_id;sensor_type;location;lat;lon;timestamp;temperature;humidity
3940;DHT22;1984;48.312;9.244;2022-12-18T00:02:12;-7.20;99.90
3940;DHT22;1984;48.312;9.244;2022-12-18T00:04:38;-7.10;99.90
3940;DHT22;1984;48.312;9.244;2022-12-18T00:07:03;-7.00;99.90
3940;DHT22;1984;48.312;9.244;2022-12-18T00:09:29;-7.00;99.90
3940;DHT22;1984;48.312;9.244;2022-12-18T00:11:55;-6.90;99.90
3940;DHT22;1984;48.312;9.244;2022-12-18T00:14:20;-6.90;99.90
3940;DHT22;1984;48.312;9.244;2022-12-18T00:16:46;-6.90;99.90
3940;DHT22;1984;48.312;9.244;2022-12-18T00:19:13;-6.90;99.90
3940;DHT22;1984;48.312;9.244;2022-12-18T00:21:39;-6.80;99.90
3940;DHT22;1984;48.312;9.244;2022-12-18T00:24:05;-6.70;99.90
3940;DHT22;1984;48.312;9.244;2022-12-18T00:26:32;-6.70;99.90
3940;DHT22;1984;48.312;9.244;2022-12-18T00:29:00;-6.60;99.90
3940;DHT22;1984;48.312;9.244;2022-12-18T00:31:26;-6.60;99.90
3940;DHT22;1984;48.312;9.244;2022-12-18T00:33:54;-6.60;99.90
3940;DHT22;1984;48.312;9.244;2022-12-18T00:36:26;-6.70;99.90
3940;DHT22;1984;48.312;9.244;2022-12-18T00:38:54;-6.70;99.90
3940;DHT22;1984;48.312;9.244;2022-12-18T00:41:20;-6.50;99.90
3940;DHT22;1984;48.312;9.244;2022-12-18T00:44:05;-6.60;99.90
3940;DHT22;1984;48.312;9.244;2022-12-18T00:46:31;-6.60;99.90
3940;DHT22;1984;48.312;9.244;2022-12-18T00:48:57;-6.50;99.90
3940;DHT22;1984;48.312;9.244;2022-12-18T00:51:23;-6.50;99.90
3940;DHT22;1984;48.312;9.244;2022-12-18T00:53:49;-6.50;99.90
3940;DHT22;1984;48.312;9.244;2022-12-18T00:56:14;-6.40;99.90
3940;DHT22;1984;48.312;9.244;2022-12-18T00:58:40;-6.40;99.90
3940;DHT22;1984;48.312;9.244;2022-12-18T01:01:06;-6.50;99.90
3940;DHT22;1984;48.312;9.244;2022-12-18T01:03:31;-6.40;99.90
3940;DHT22;1984;48.312;9.244;2022-12-18T01:05:57;-6.40;99.90
3940;DHT22;1984;48.312;9.244;2022-12-18T01:08:23;-6.40;99.90
3940;DHT22;1984;48.312;9.244;2022-12-18T01:10:48;-6.30;99.90
3940;DHT22;1984;48.312;9.244;2022-12-18T01:13:14;-6.30;99.90
3940;DHT22;1984;48.312;9.244;2022-12-18T01:15:40;-6.30;99.90
3940;DHT22;1984;48.312;9.244;2022-12-18T01:18:12;-6.20;99.90
3940;DHT22;1984;48.312;9.244;2022-12-18T01:20:38;-6.20;99.90
3940;DHT22;1984;48.312;9.244;2022-12-18T01:23:03;-6.20;99.90
3940;DHT22;1984;48.312;9.244;2022-12-18T01:25:29;-6.20;99.90
3940;DHT22;1984;48.312;9.244;2022-12-18T01:27:54;-6.20;99.90
3940;DHT22;1984;48.312;9.244;2022-12-18T01:30:20;-6.20;99.90
3940;DHT22;1984;48.312;9.244;2022-12-18T01:32:45;-6.20;99.90
3940;DHT22;1984;48.312;9.244;2022-12-18T01:35:11;-6.20;99.90
3940;DHT22;1984;48.312;9.244;2022-12-18T01:37:36;-6.30;99.90
3940;DHT22;1984;48.312;9.244;2022-12-18T01:40:02;-6.40;99.90
3940;DHT22;1984;48.312;9.244;2022-12-18T01:42:28;-6.50;99.90
3940;DHT22;1984;48.312;9.244;2022-12-18T01:47:46;-6.60;99.90
3940;DHT22;1984;48.312;9.244;2022-12-18T01:52:45;-6.50;99.90
3940;DHT22;1984;48.312;9.244;2022-12-18T01:55:12;-6.40;99.90
3940;DHT22;1984;48.312;9.244;2022-12-18T01:57:40;-6.40;99.90
3940;DHT22;1984;48.312;9.244;2022-12-18T02:00:16;-6.30;99.90
3940;DHT22;1984;48.312;9.244;2022-12-18T02:02:44;-6.20;99.90
3940;DHT22;1984;48.312;9.244;2022-12-18T02:05:12;-6.20;99.90
3940;DHT22;1984;48.312;9.244;2022-12-18T02:10:31;-6.40;99.90
3940;DHT22;1984;48.312;9.244;2022-12-18T02:13:19;-6.40;99.90
3940;DHT22;1984;48.312;9.244;2022-12-18T02:16:13;-6.50;99.90
3940;DHT22;1984;48.312;9.244;2022-12-18T02:18:45;-6.50;99.90
3940;DHT22;1984;48.312;9.244;2022-12-18T02:27:03;-6.40;99.90
3940;DHT22;1984;48.312;9.244;2022-12-18T02:29:34;-6.40;99.90
3940;DHT22;1984;48.312;9.244;2022-12-18T02:32:04;-6.30;99.90
3940;DHT22;1984;48.312;9.244;2022-12-18T02:34:33;-6.20;99.90
3940;DHT22;1984;48.312;9.244;2022-12-18T02:37:02;-6.20;99.90
3940;DHT22;1984;48.312;9.244;2022-12-18T02:39:31;-6.10;99.90
3940;DHT22;1984;48.312;9.244;2022-12-18T02:41:58;-6.20;99.90
3940;DHT22;1984;48.312;9.244;2022-12-18T02:44:24;-6.20;99.90
3940;DHT22;1984;48.312;9.244;2022-12-18T02:46:52;-6.30;99.90
3940;DHT22;1984;48.312;9.244;2022-12-18T02:56:50;-6.10;99.90
3940;DHT22;1984;48.312;9.244;2022-12-18T02:59:24;-6.10;99.90
3940;DHT22;1984;48.312;9.244;2022-12-18T03:02:12;-6.10;99.90
3940;DHT22;1984;48.312;9.244;2022-12-18T03:04:48;-6.00;99.90
3940;DHT22;1984;48.312;9.244;2022-12-18T03:07:27;-6.00;99.90
3940;DHT22;1984;48.312;9.244;2022-12-18T03:09:54;-6.10;99.90
3940;DHT22;1984;48.312;9.244;2022-12-18T03:12:28;-6.10;99.90
3940;DHT22;1984;48.312;9.244;2022-12-18T03:15:18;-6.10;99.90
3940;DHT22;1984;48.312;9.244;2022-12-18T03:17:52;-6.00;99.90
3940;DHT22;1984;48.312;9.244;2022-12-18T03:20:21;-6.00;99.90
3940;DHT22;1984;48.312;9.244;2022-12-18T03:22:52;-6.00;99.90
3940;DHT22;1984;48.312;9.244;2022-12-18T03:25:19;-6.10;99.90
3940;DHT22;1984;48.312;9.244;2022-12-18T03:27:49;-6.20;99.90
3940;DHT22;1984;48.312;9.244;2022-12-18T03:30:16;-6.20;99.90
3940;DHT22;1984;48.312;9.244;2022-12-18T03:32:50;-6.20;99.90
3940;DHT22;1984;48.312;9.244;2022-12-18T03:35:25;-6.30;99.90
3940;DHT22;1984;48.312;9.244;2022-12-18T03:37:52;-6.30;99.90
3940;DHT22;1984;48.312;9.244;2022-12-18T03:40:19;-6.30;99.90
3940;DHT22;1984;48.312;9.244;2022-12-18T03:42:56;-6.20;99.90
3940;DHT22;1984;48.312;9.244;2022-12-18T03:45:34;-6.20;99.90
3940;DHT22;1984;48.312;9.244;2022-12-18T03:48:09;-6.10;99.90
3940;DHT22;1984;48.312;9.244;2022-12-18T03:50:56;-6.10;99.90
3940;DHT22;1984;48.312;9.244;2022-12-18T03:53:43;-6.00;99.90
3940;DHT22;1984;48.312;9.244;2022-12-18T03:56:13;-5.90;99.90
3940;DHT22;1984;48.312;9.244;2022-12-18T03:58:41;-5.90;99.90
3940;DHT22;1984;48.312;9.244;2022-12-18T04:01:08;-5.90;99.90
3940;DHT22;1984;48.312;9.244;2022-12-18T04:03:36;-6.00;99.90
3940;DHT22;1984;48.312;9.244;2022-12-18T04:06:03;-5.90;99.90
3940;DHT22;1984;48.312;9.244;2022-12-18T04:08:29;-6.00;99.90
3940;DHT22;1984;48.312;9.244;2022-12-18T04:10:55;-5.90;99.90
3940;DHT22;1984;48.312;9.244;2022-12-18T04:13:39;-5.80;99.90
3940;DHT22;1984;48.312;9.244;2022-12-18T04:16:05;-5.80;99.90
3940;DHT22;1984;48.312;9.244;2022-12-18T04:18:31;-5.80;99.90
3940;DHT22;1984;48.312;9.244;2022-12-18T04:20:56;-5.80;99.90
3940;DHT22;1984;48.312;9.244;2022-12-18T04:23:22;-5.80;99.90
3940;DHT22;1984;48.312;9.244;2022-12-18T04:25:47;-5.80;99.90
3940;DHT22;1984;48.312;9.244;2022-12-18T04:28:13;-5.60;99.90
3940;DHT22;1984;48.312;9.244;2022-12-18T04:30:39;-5.80;99.90
3940;DHT22;1984;48.312;9.244;2022-12-18T04:33:12;-5.70;99.90
3940;DHT22;1984;48.312;9.244;2022-12-18T04:35:39;-5.70;99.90
3940;DHT22;1984;48.312;9.244;2022-12-18T04:38:06;-5.70;99.90
3940;DHT22;1984;48.312;9.244;2022-12-18T04:40:32;-5.80;99.90
3940;DHT22;1984;48.312;9.244;2022-12-18T04:42:57;-5.90;99.90
3940;DHT22;1984;48.312;9.244;2022-12-18T04:45:23;-5.90;99.90
3940;DHT22;1984;48.312;9.244;2022-12-18T04:47:48;-6.00;99.90
3940;DHT22;1984;48.312;9.244;2022-12-18T04:50:14;-6.10;99.90
3940;DHT22;1984;48.312;9.244;2022-12-18T04:52:39;-6.20;99.90
3940;DHT22;1984;48.312;9.244;2022-12-18T04:55:05;-6.20;99.90
3940;DHT22;1984;48.312;9.244;2022-12-18T04:57:31;-6.20;99.90
3940;DHT22;1984;48.312;9.244;2022-12-18T04:59:57;-6.30;99.90
3940;DHT22;1984;48.312;9.244;2022-12-18T05:02:22;-6.40;99.90
3940;DHT22;1984;48.312;9.244;2022-12-18T05:04:48;-6.40;99.90
3940;DHT22;1984;48.312;9.244;2022-12-18T05:07:13;-6.30;99.90
3940;DHT22;1984;48.312;9.244;2022-12-18T05:09:39;-6.30;99.90
3940;DHT22;1984;48.312;9.244;2022-12-18T05:12:04;-6.30;99.90
3940;DHT22;1984;48.312;9.244;2022-12-18T05:14:30;-6.20;99.90
3940;DHT22;1984;48.312;9.244;2022-12-18T05:16:55;-6.20;99.90
3940;DHT22;1984;48.312;9.244;2022-12-18T05:19:21;-6.40;99.90
3940;DHT22;1984;48.312;9.244;2022-12-18T05:21:46;-6.40;99.90
3940;DHT22;1984;48.312;9.244;2022-12-18T05:24:12;-6.60;99.90
3940;DHT22;1984;48.312;9.244;2022-12-18T05:26:38;-6.60;99.90
3940;DHT22;1984;48.312;9.244;2022-12-18T05:29:03;-6.60;99.90
3940;DHT22;1984;48.312;9.244;2022-12-18T05:31:29;-6.50;99.90
3940;DHT22;1984;48.312;9.244;2022-12-18T05:33:54;-6.60;99.90
3940;DHT22;1984;48.312;9.244;2022-12-18T05:36:20;-6.60;99.90
3940;DHT22;1984;48.312;9.244;2022-12-18T05:38:45;-6.60;99.90
3940;DHT22;1984;48.312;9.244;2022-12-18T05:41:11;-6.60;99.90
3940;DHT22;1984;48.312;9.244;2022-12-18T05:43:38;-6.50;99.90
3940;DHT22;1984;48.312;9.244;2022-12-18T05:46:11;-6.50;99.90
3940;DHT22;1984;48.312;9.244;2022-12-18T05:48:37;-6.50;99.90
3940;DHT22;1984;48.312;9.244;2022-12-18T05:51:07;-6.50;99.90
3940;DHT22;1984;48.312;9.244;2022-12-18T05:53:34;-6.50;99.90
3940;DHT22;1984;48.312;9.244;2022-12-18T05:56:01;-6.40;99.90
3940;DHT22;1984;48.312;9.244;2022-12-18T05:58:27;-6.30;99.90
3940;DHT22;1984;48.312;9.244;2022-12-18T06:00:53;-6.20;99.90
3940;DHT22;1984;48.312;9.244;2022-12-18T06:03:18;-6.10;99.90
3940;DHT22;1984;48.312;9.244;2022-12-18T06:05:45;-6.00;99.90
3940;DHT22;1984;48.312;9.244;2022-12-18T06:08:11;-6.10;99.90
3940;DHT22;1984;48.312;9.244;2022-12-18T06:10:37;-6.10;99.90
3940;DHT22;1984;48.312;9.244;2022-12-18T06:13:03;-6.20;99.90
3940;DHT22;1984;48.312;9.244;2022-12-18T06:15:29;-6.30;99.90
3940;DHT22;1984;48.312;9.244;2022-12-18T06:17:54;-6.30;99.90
3940;DHT22;1984;48.312;9.244;2022-12-18T06:20:20;-6.40;99.90
3940;DHT22;1984;48.312;9.244;2022-12-18T06:22:46;-6.40;99.90
3940;DHT22;1984;48.312;9.244;2022-12-18T06:25:12;-6.40;99.90
3940;DHT22;1984;48.312;9.244;2022-12-18T06:27:37;-6.40;99.90
3940;DHT22;1984;48.312;9.244;2022-12-18T06:30:04;-6.20;99.90
3940;DHT22;1984;48.312;9.244;2022-12-18T06:32:29;-6.30;99.90
3940;DHT22;1984;48.312;9.244;2022-12-18T06:34:55;-6.20;99.90
3940;DHT22;1984;48.312;9.244;2022-12-18T06:37:21;-6.20;99.90
3940;DHT22;1984;48.312;9.244;2022-12-18T06:39:50;-6.10;99.90
3940;DHT22;1984;48.312;9.244;2022-12-18T06:42:15;-6.00;99.90
3940;DHT22;1984;48.312;9.244;2022-12-18T06:44:41;-6.00;99.90
3940;DHT22;1984;48.312;9.244;2022-12-18T06:47:06;-6.00;99.90
3940;DHT22;1984;48.312;9.244;2022-12-18T06:49:32;-5.90;99.90
3940;DHT22;1984;48.312;9.244;2022-12-18T06:51:57;-5.90;99.90
3940;DHT22;1984;48.312;9.244;2022-12-18T06:54:23;-5.90;99.90
3940;DHT22;1984;48.312;9.244;2022-12-18T06:56:48;-5.80;99.90
3940;DHT22;1984;48.312;9.244;2022-12-18T06:59:14;-5.80;99.90
3940;DHT22;1984;48.312;9.244;2022-12-18T07:01:40;-5.80;99.90
3940;DHT22;1984;48.312;9.244;2022-12-18T07:04:07;-5.80;99.90
3940;DHT22;1984;48.312;9.244;2022-12-18T07:06:32;-5.70;99.90
3940;DHT22;1984;48.312;9.244;2022-12-18T07:08:58;-5.80;99.90
3940;DHT22;1984;48.312;9.244;2022-12-18T07:11:24;-5.90;99.90
3940;DHT22;1984;48.312;9.244;2022-12-18T07:13:49;-5.90;99.90
3940;DHT22;1984;48.312;9.244;2022-12-18T07:16:17;-5.60;99.90
3940;DHT22;1984;48.312;9.244;2022-12-18T07:18:43;-5.50;99.90
3940;DHT22;1984;48.312;9.244;2022-12-18T07:21:13;-5.50;99.90
3940;DHT22;1984;48.312;9.244;2022-12-18T07:23:39;-5.60;99.90
3940;DHT22;1984;48.312;9.244;2022-12-18T07:26:11;-5.60;99.90
3940;DHT22;1984;48.312;9.244;2022-12-18T07:28:37;-5.70;99.90
3940;DHT22;1984;48.312;9.244;2022-12-18T07:31:05;-6.00;99.90
3940;DHT22;1984;48.312;9.244;2022-12-18T07:33:32;-6.20;99.90
3940;DHT22;1984;48.312;9.244;2022-12-18T07:35:59;-6.10;99.90
3940;DHT22;1984;48.312;9.244;2022-12-18T07:38:25;-6.00;99.90
3940;DHT22;1984;48.312;9.244;2022-12-18T07:40:50;-6.00;99.90
3940;DHT22;1984;48.312;9.244;2022-12-18T07:43:16;-6.00;99.90
3940;DHT22;1984;48.312;9.244;2022-12-18T07:45:42;-6.00;99.90
3940;DHT22;1984;48.312;9.244;2022-12-18T07:48:08;-6.00;99.90
3940;DHT22;1984;48.312;9.244;2022-12-18T07:50:33;-6.10;99.90
3940;DHT22;1984;48.312;9.244;2022-12-18T07:52:59;-6.20;99.90
3940;DHT22;1984;48.312;9.244;2022-12-18T07:55:29;-6.20;99.90
3940;DHT22;1984;48.312;9.244;2022-12-18T07:57:54;-6.10;99.90
3940;DHT22;1984;48.312;9.244;2022-12-18T08:00:20;-6.10;99.90
3940;DHT22;1984;48.312;9.244;2022-12-18T08:02:46;-5.90;99.90
3940;DHT22;1984;48.312;9.244;2022-12-18T08:05:11;-5.90;99.90
3940;DHT22;1984;48.312;9.244;2022-12-18T08:07:37;-5.80;99.90
3940;DHT22;1984;48.312;9.244;2022-12-18T08:10:03;-5.80;99.90
3940;DHT22;1984;48.312;9.244;2022-12-18T08:12:28;-5.70;99.90
3940;DHT22;1984;48.312;9.244;2022-12-18T08:14:54;-5.70;99.90
3940;DHT22;1984;48.312;9.244;2022-12-18T08:17:19;-5.80;99.90
3940;DHT22;1984;48.312;9.244;2022-12-18T08:19:45;-5.90;99.90
3940;DHT22;1984;48.312;9.244;2022-12-18T08:22:10;-6.10;99.90
3940;DHT22;1984;48.312;9.244;2022-12-18T08:24:36;-6.10;99.90
3940;DHT22;1984;48.312;9.244;2022-12-18T08:27:02;-6.20;99.90
3940;DHT22;1984;48.312;9.244;2022-12-18T08:29:27;-6.30;99.90
3940;DHT22;1984;48.312;9.244;2022-12-18T08:31:53;-6.30;99.90
3940;DHT22;1984;48.312;9.244;2022-12-18T08:34:18;-6.20;99.90
3940;DHT22;1984;48.312;9.244;2022-12-18T08:36:44;-6.20;99.90
3940;DHT22;1984;48.312;9.244;2022-12-18T08:39:09;-6.20;99.90
3940;DHT22;1984;48.312;9.244;2022-12-18T08:41:35;-6.10;99.90
3940;DHT22;1984;48.312;9.244;2022-12-18T08:44:00;-5.90;99.90
3940;DHT22;1984;48.312;9.244;2022-12-18T08:46:45;-5.80;99.90
3940;DHT22;1984;48.312;9.244;2022-12-18T08:49:11;-5.60;99.90
3940;DHT22;1984;48.312;9.244;2022-12-18T08:51:37;-5.50;99.90
3940;DHT22;1984;48.312;9.244;2022-12-18T08:54:03;-5.40;99.90
3940;DHT22;1984;48.312;9.244;2022-12-18T08:56:30;-5.40;99.90
3940;DHT22;1984;48.312;9.244;2022-12-18T08:58:56;-5.30;99.90
3940;DHT22;1984;48.312;9.244;2022-12-18T09:01:22;-5.30;99.90
3940;DHT22;1984;48.312;9.244;2022-12-18T09:03:49;-5.20;99.90
3940;DHT22;1984;48.312;9.244;2022-12-18T09:06:17;-5.30;99.90
3940;DHT22;1984;48.312;9.244;2022-12-18T09:08:46;-5.30;99.90
3940;DHT22;1984;48.312;9.244;2022-12-18T09:11:24;-5.40;99.90
3940;DHT22;1984;48.312;9.244;2022-12-18T09:13:51;-5.40;99.90
3940;DHT22;1984;48.312;9.244;2022-12-18T09:16:17;-5.30;99.90
3940;DHT22;1984;48.312;9.244;2022-12-18T09:18:42;-5.20;99.90
3940;DHT22;1984;48.312;9.244;2022-12-18T09:21:14;-5.20;99.90
3940;DHT22;1984;48.312;9.244;2022-12-18T09:23:40;-5.30;99.90
3940;DHT22;1984;48.312;9.244;2022-12-18T09:26:06;-5.50;99.90
3940;DHT22;1984;48.312;9.244;2022-12-18T09:28:31;-5.50;99.90
3940;DHT22;1984;48.312;9.244;2022-12-18T09:30:57;-5.50;99.90
3940;DHT22;1984;48.312;9.244;2022-12-18T09:33:22;-5.60;99.90
3940;DHT22;1984;48.312;9.244;2022-12-18T09:35:48;-5.50;99.90
3940;DHT22;1984;48.312;9.244;2022-12-18T09:38:16;-5.50;99.90
3940;DHT22;1984;48.312;9.244;2022-12-18T09:43:18;-5.40;99.90
3940;DHT22;1984;48.312;9.244;2022-12-18T09:45:49;-5.40;99.90
3940;DHT22;1984;48.312;9.244;2022-12-18T09:48:30;-5.30;99.90
3940;DHT22;1984;48.312;9.244;2022-12-18T09:51:01;-5.30;99.90
3940;DHT22;1984;48.312;9.244;2022-12-18T09:53:31;-5.30;99.90
3940;DHT22;1984;48.312;9.244;2022-12-18T09:55:59;-5.40;99.90
3940;DHT22;1984;48.312;9.244;2022-12-18T10:01:24;-5.40;99.90
3940;DHT22;1984;48.312;9.244;2022-12-18T10:03:50;-5.30;99.90
3940;DHT22;1984;48.312;9.244;2022-12-18T10:09:05;-4.80;99.90
3940;DHT22;1984;48.312;9.244;2022-12-18T10:20:03;-4.50;99.90
3940;DHT22;1984;48.312;9.244;2022-12-18T10:22:47;-4.40;99.90
3940;DHT22;1984;48.312;9.244;2022-12-18T10:27:58;-5.00;99.90
3940;DHT22;1984;48.312;9.244;2022-12-18T10:30:25;-5.20;99.90
3940;DHT22;1984;48.312;9.244;2022-12-18T10:32:51;-5.20;99.90
3940;DHT22;1984;48.312;9.244;2022-12-18T10:35:21;-5.00;99.90
3940;DHT22;1984;48.312;9.244;2022-12-18T10:38:06;-4.80;99.90
3940;DHT22;1984;48.312;9.244;2022-12-18T10:40:47;-4.50;99.90
3940;DHT22;1984;48.312;9.244;2022-12-18T10:43:14;-4.40;99.90
3940;DHT22;1984;48.312;9.244;2022-12-18T10:45:41;-4.20;99.90
3940;DHT22;1984;48.312;9.244;2022-12-18T10:48:22;-4.20;99.90
3940;DHT22;1984;48.312;9.244;2022-12-18T10:50:50;-4.30;99.90
3940;DHT22;1984;48.312;9.244;2022-12-18T10:53:25;-4.40;99.90
3940;DHT22;1984;48.312;9.244;2022-12-18T10:55:53;-4.50;99.90
3940;DHT22;1984;48.312;9.244;2022-12-18T10:58:37;-4.50;99.90
3940;DHT22;1984;48.312;9.244;2022-12-18T11:01:15;-4.20;99.90
3940;DHT22;1984;48.312;9.244;2022-12-18T11:03:44;-4.00;99.90
3940;DHT22;1984;48.312;9.244;2022-12-18T11:06:22;-3.80;99.90
3940;DHT22;1984;48.312;9.244;2022-12-18T11:09:18;-3.60;99.90
3940;DHT22;1984;48.312;9.244;2022-12-18T11:11:52;-3.70;99.90
3940;DHT22;1984;48.312;9.244;2022-12-18T11:14:32;-4.00;99.90
3940;DHT22;1984;48.312;9.244;2022-12-18T11:17:00;-4.10;99.90
3940;DHT22;1984;48.312;9.244;2022-12-18T11:19:35;-4.10;99.90
3940;DHT22;1984;48.312;9.244;2022-12-18T11:22:21;-4.20;99.90
3940;DHT22;1984;48.312;9.244;2022-12-18T11:24:56;-4.50;99.90
3940;DHT22;1984;48.312;9.244;2022-12-18T11:27:23;-4.60;99.90
3940;DHT22;1984;48.312;9.244;2022-12-18T11:29:50;-4.50;99.90
3940;DHT22;1984;48.312;9.244;2022-12-18T11:35:32;-4.40;99.90
3940;DHT22;1984;48.312;9.244;2022-12-18T11:38:05;-4.20;99.90
3940;DHT22;1984;48.312;9.244;2022-12-18T11:40:40;-4.30;99.90
3940;DHT22;1984;48.312;9.244;2022-12-18T11:43:17;-4.50;99.90
3940;DHT22;1984;48.312;9.244;2022-12-18T11:45:55;-4.70;99.90
3940;DHT22;1984;48.312;9.244;2022-12-18T11:48:58;-4.90;99.90
3940;DHT22;1984;48.312;9.244;2022-12-18T11:51:32;-4.90;99.90
3940;DHT22;1984;48.312;9.244;2022-12-18T11:54:00;-4.70;99.90
3940;DHT22;1984;48.312;9.244;2022-12-18T11:56:32;-4.60;99.90
3940;DHT22;1984;48.312;9.244;2022-12-18T11:59:18;-4.50;99.90
3940;DHT22;1984;48.312;9.244;2022-12-18T12:01:54;-4.50;99.90
3940;DHT22;1984;48.312;9.244;2022-12-18T12:07:28;-4.70;99.90
3940;DHT22;1984;48.312;9.244;2022-12-18T12:10:33;-4.40;99.90
3940;DHT22;1984;48.312;9.244;2022-12-18T12:23:50;-3.70;99.90
3940;DHT22;1984;48.312;9.244;2022-12-18T12:39:57;-3.70;99.90
3940;DHT22;1984;48.312;9.244;2022-12-18T12:42:40;-3.80;99.90
3940;DHT22;1984;48.312;9.244;2022-12-18T12:45:37;-3.80;99.90
3940;DHT22;1984;48.312;9.244;2022-12-18T12:48:10;-4.20;99.90
3940;DHT22;1984;48.312;9.244;2022-12-18T12:50:40;-4.40;99.90
3940;DHT22;1984;48.312;9.244;2022-12-18T12:53:07;-4.40;99.90
3940;DHT22;1984;48.312;9.244;2022-12-18T12:55:34;-4.40;99.90
3940;DHT22;1984;48.312;9.244;2022-12-18T12:58:28;-4.60;99.90
3940;DHT22;1984;48.312;9.244;2022-12-18T13:06:29;-4.50;99.90
3940;DHT22;1984;48.312;9.244;2022-12-18T13:09:00;-4.50;99.90
3940;DHT22;1984;48.312;9.244;2022-12-18T13:14:37;-4.20;99.90
3940;DHT22;1984;48.312;9.244;2022-12-18T13:17:15;-4.10;99.90
3940;DHT22;1984;48.312;9.244;2022-12-18T13:19:42;-4.00;99.90
3940;DHT22;1984;48.312;9.244;2022-12-18T13:22:34;-4.00;99.90
3940;DHT22;1984;48.312;9.244;2022-12-18T13:25:00;-4.20;99.90
3940;DHT22;1984;48.312;9.244;2022-12-18T13:45:58;-4.40;99.90
3940;DHT22;1984;48.312;9.244;2022-12-18T13:48:26;-4.50;99.90
3940;DHT22;1984;48.312;9.244;2022-12-18T13:51:06;-4.50;99.90
3940;DHT22;1984;48.312;9.244;2022-12-18T13:56:21;-4.40;99.90
3940;DHT22;1984;48.312;9.244;2022-12-18T13:59:23;-4.40;99.90
3940;DHT22;1984;48.312;9.244;2022-12-18T14:02:00;-4.40;99.90
3940;DHT22;1984;48.312;9.244;2022-12-18T14:04:31;-4.40;99.90
3940;DHT22;1984;48.312;9.244;2022-12-18T14:07:24;-4.40;99.90
3940;DHT22;1984;48.312;9.244;2022-12-18T14:09:53;-4.50;99.90
3940;DHT22;1984;48.312;9.244;2022-12-18T14:12:31;-4.50;99.90
3940;DHT22;1984;48.312;9.244;2022-12-18T14:17:59;-4.60;99.90
3940;DHT22;1984;48.312;9.244;2022-12-18T14:20:26;-4.70;99.90
3940;DHT22;1984;48.312;9.244;2022-12-18T14:22:52;-4.70;99.90
3940;DHT22;1984;48.312;9.244;2022-12-18T14:25:23;-4.70;99.90
3940;DHT22;1984;48.312;9.244;2022-12-18T14:28:14;-4.70;99.90
3940;DHT22;1984;48.312;9.244;2022-12-18T14:30:41;-4.60;99.90
3940;DHT22;1984;48.312;9.244;2022-12-18T14:36:00;-4.60;99.90
3940;DHT22;1984;48.312;9.244;2022-12-18T14:38:41;-4.70;99.90
3940;DHT22;1984;48.312;9.244;2022-12-18T14:41:09;-4.60;99.90
3940;DHT22;1984;48.312;9.244;2022-12-18T14:43:37;-4.50;99.90
3940;DHT22;1984;48.312;9.244;2022-12-18T14:46:05;-4.50;99.90
3940;DHT22;1984;48.312;9.244;2022-12-18T14:48:39;-4.50;99.90
3940;DHT22;1984;48.312;9.244;2022-12-18T14:51:12;-4.60;99.90
3940;DHT22;1984;48.312;9.244;2022-12-18T14:53:42;-4.60;99.90
3940;DHT22;1984;48.312;9.244;2022-12-18T14:56:23;-4.60;99.90
3940;DHT22;1984;48.312;9.244;2022-12-18T14:58:55;-4.60;99.90
3940;DHT22;1984;48.312;9.244;2022-12-18T15:01:27;-4.60;99.90
3940;DHT22;1984;48.312;9.244;2022-12-18T15:03:54;-4.60;99.90
3940;DHT22;1984;48.312;9.244;2022-12-18T15:06:33;-4.60;99.90
3940;DHT22;1984;48.312;9.244;2022-12-18T15:09:00;-4.50;99.90
3940;DHT22;1984;48.312;9.244;2022-12-18T15:11:45;-4.60;99.90
3940;DHT22;1984;48.312;9.244;2022-12-18T15:16:51;-4.80;99.90
3940;DHT22;1984;48.312;9.244;2022-12-18T15:19:18;-4.80;99.90
3940;DHT22;1984;48.312;9.244;2022-12-18T15:21:44;-4.80;99.90
3940;DHT22;1984;48.312;9.244;2022-12-18T15:24:23;-4.90;99.90
3940;DHT22;1984;48.312;9.244;2022-12-18T15:26:49;-4.90;99.90
3940;DHT22;1984;48.312;9.244;2022-12-18T15:29:20;-5.00;99.90
3940;DHT22;1984;48.312;9.244;2022-12-18T15:32:04;-5.10;99.90
3940;DHT22;1984;48.312;9.244;2022-12-18T15:34:32;-5.10;99.90
3940;DHT22;1984;48.312;9.244;2022-12-18T15:36:59;-5.10;99.90
3940;DHT22;1984;48.312;9.244;2022-12-18T15:39:25;-5.10;99.90
3940;DHT22;1984;48.312;9.244;2022-12-18T15:41:50;-5.10;99.90
3940;DHT22;1984;48.312;9.244;2022-12-18T15:44:34;-5.10;99.90
3940;DHT22;1984;48.312;9.244;2022-12-18T15:47:00;-5.00;99.90
3940;DHT22;1984;48.312;9.244;2022-12-18T15:49:26;-5.00;99.90
3940;DHT22;1984;48.312;9.244;2022-12-18T15:51:53;-4.90;99.90
3940;DHT22;1984;48.312;9.244;2022-12-18T15:54:20;-5.00;99.90
3940;DHT22;1984;48.312;9.244;2022-12-18T15:57:07;-5.10;99.90
3940;DHT22;1984;48.312;9.244;2022-12-18T15:59:49;-5.10;99.90
3940;DHT22;1984;48.312;9.244;2022-12-18T16:02:18;-5.10;99.90
3940;DHT22;1984;48.312;9.244;2022-12-18T16:04:44;-5.00;99.90
3940;DHT22;1984;48.312;9.244;2022-12-18T16:07:13;-4.80;99.90
3940;DHT22;1984;48.312;9.244;2022-12-18T16:09:39;-4.90;99.90
3940;DHT22;1984;48.312;9.244;2022-12-18T16:12:06;-4.90;99.90
3940;DHT22;1984;48.312;9.244;2022-12-18T16:14:32;-4.90;99.90
3940;DHT22;1984;48.312;9.244;2022-12-18T16:17:03;-5.00;99.90
3940;DHT22;1984;48.312;9.244;2022-12-18T16:19:30;-5.10;99.90
3940;DHT22;1984;48.312;9.244;2022-12-18T16:21:57;-5.10;99.90
3940;DHT22;1984;48.312;9.244;2022-12-18T16:24:25;-5.10;99.90
3940;DHT22;1984;48.312;9.244;2022-12-18T16:26:52;-5.20;99.90
3940;DHT22;1984;48.312;9.244;2022-12-18T16:29:19;-5.20;99.90
3940;DHT22;1984;48.312;9.244;2022-12-18T16:31:52;-5.10;99.90
3940;DHT22;1984;48.312;9.244;2022-12-18T16:34:20;-5.10;99.90
3940;DHT22;1984;48.312;9.244;2022-12-18T16:36:51;-5.10;99.90
3940;DHT22;1984;48.312;9.244;2022-12-18T16:39:17;-5.10;99.90
3940;DHT22;1984;48.312;9.244;2022-12-18T16:41:43;-5.10;99.90
3940;DHT22;1984;48.312;9.244;2022-12-18T16:44:09;-5.10;99.90
3940;DHT22;1984;48.312;9.244;2022-12-18T16:46:35;-5.10;99.90
3940;DHT22;1984;48.312;9.244;2022-12-18T16:49:01;-5.10;99.90
3940;DHT22;1984;48.312;9.244;2022-12-18T16:51:27;-5.10;99.90
3940;DHT22;1984;48.312;9.244;2022-12-18T16:53:56;-5.10;99.90
3940;DHT22;1984;48.312;9.244;2022-12-18T16:56:23;-5.00;99.90
3940;DHT22;1984;48.312;9.244;2022-12-18T16:58:53;-5.00;99.90
3940;DHT22;1984;48.312;9.244;2022-12-18T17:01:19;-4.90;99.90
3940;DHT22;1984;48.312;9.244;2022-12-18T17:03:53;-5.00;99.90
3940;DHT22;1984;48.312;9.244;2022-12-18T17:06:21;-5.00;99.90
3940;DHT22;1984;48.312;9.244;2022-12-18T17:08:47;-5.00;99.90
3940;DHT22;1984;48.312;9.244;2022-12-18T17:11:13;-5.00;99.90
3940;DHT22;1984;48.312;9.244;2022-12-18T17:13:40;-5.00;99.90
3940;DHT22;1984;48.312;9.244;2022-12-18T17:16:06;-5.00;99.90
3940;DHT22;1984;48.312;9.244;2022-12-18T17:18:33;-5.00;99.90
3940;DHT22;1984;48.312;9.244;2022-12-18T17:21:03;-4.90;99.90
3940;DHT22;1984;48.312;9.244;2022-12-18T17:23:29;-4.90;99.90
3940;DHT22;1984;48.312;9.244;2022-12-18T17:25:59;-4.90;99.90
3940;DHT22;1984;48.312;9.244;2022-12-18T17:28:25;-4.90;99.90
3940;DHT22;1984;48.312;9.244;2022-12-18T17:30:52;-4.80;99.90
3940;DHT22;1984;48.312;9.244;2022-12-18T17:33:18;-4.80;99.90
3940;DHT22;1984;48.312;9.244;2022-12-18T17:35:44;-4.80;99.90
3940;DHT22;1984;48.312;9.244;2022-12-18T17:38:09;-4.80;99.90
3940;DHT22;1984;48.312;9.244;2022-12-18T17:40:35;-4.70;99.90
3940;DHT22;1984;48.312;9.244;2022-12-18T17:43:01;-4.70;99.90
3940;DHT22;1984;48.312;9.244;2022-12-18T17:45:26;-4.70;99.90
3940;DHT22;1984;48.312;9.244;2022-12-18T17:47:52;-4.60;99.90
3940;DHT22;1984;48.312;9.244;2022-12-18T17:50:18;-4.70;99.90
3940;DHT22;1984;48.312;9.244;2022-12-18T17:52:44;-4.70;99.90
3940;DHT22;1984;48.312;9.244;2022-12-18T17:55:09;-4.60;99.90
3940;DHT22;1984;48.312;9.244;2022-12-18T17:57:35;-4.70;99.90
3940;DHT22;1984;48.312;9.244;2022-12-18T18:00:05;-4.70;99.90
3940;DHT22;1984;48.312;9.244;2022-12-18T18:02:31;-4.70;99.90
3940;DHT22;1984;48.312;9.244;2022-12-18T18:04:56;-4.70;99.90
3940;DHT22;1984;48.312;9.244;2022-12-18T18:07:22;-4.60;99.90